Time;durP1;ratioP1;P1;durP2;ratioP2;P2;SDS_P1;SDS_P2;PMS_P1;PMS_P2;Temp;Humidity;BMP_temperature;BMP_pressure;BME280_temperature;BME280_humidity;BME280_pressure;Samples;Min_cycle;Max_cycle;Signal;HPM_P1;HPM_P2
2023/01/17 00:00:05;;;;;;;1.03;0.80;;;;;;;4.02;92.64;97065.38;5045026;28;20226;-82
2023/01/17 00:02:32;;;;;;;1.73;1.00;;;;;;;4.04;92.93;97064.28;5045173;28;20568;-82
2023/01/17 00:10:28;;;;;;;1.70;1.37;;;;;;;3.99;93.49;97076.19;5043250;28;20205;-82
2023/01/17 00:12:56;;;;;;;1.20;1.10;;;;;;;3.97;93.37;97072.88;5041218;28;20229;-82
2023/01/17 00:15:25;;;;;;;1.20;0.97;;;;;;;3.99;93.23;97068.28;5043924;28;20212;-82
2023/01/17 00:17:55;;;;;;;1.33;1.23;;;;;;;3.96;92.99;97066.78;5039604;28;20324;-82
2023/01/17 00:26:03;;;;;;;1.30;1.20;;;;;;;3.97;93.66;97073.69;5042852;28;20237;-84
2023/01/17 01:35:27;;;;;;;3.10;2.70;;;;;;;3.77;94.79;97146.63;5037559;28;20258;-83
2023/01/17 01:37:54;;;;;;;2.53;2.33;;;;;;;3.77;94.34;97154.50;5044286;28;20525;-83
2023/01/17 01:40:21;;;;;;;2.53;2.33;;;;;;;3.75;94.37;97145.13;5040282;28;20947;-83
2023/01/17 01:42:49;;;;;;;3.17;2.77;;;;;;;3.75;94.96;97153.84;5044950;28;20229;-82
2023/01/17 01:45:18;;;;;;;4.67;4.23;;;;;;;3.71;94.86;97149.81;5046418;28;20234;-83
2023/01/17 01:47:48;;;;;;;4.93;4.20;;;;;;;3.72;94.04;97158.56;5045714;28;20649;-83
2023/01/17 01:50:15;;;;;;;6.03;4.67;;;;;;;3.69;94.19;97149.13;5045977;28;20201;-82
2023/01/17 01:52:46;;;;;;;5.50;3.93;;;;;;;3.71;94.34;97157.72;5046319;28;20235;-82
2023/01/17 01:55:17;;;;;;;4.57;4.17;;;;;;;3.68;93.44;97163.25;5048199;28;20208;-82
2023/01/17 01:57:47;;;;;;;4.17;3.77;;;;;;;3.70;93.88;97168.38;5046940;28;20368;-82
2023/01/17 02:00:17;;;;;;;3.67;3.27;;;;;;;3.71;92.99;97164.78;5046917;28;20610;-83
2023/01/17 02:02:49;;;;;;;3.30;3.00;;;;;;;3.71;93.42;97172.69;5047512;28;20237;-82
2023/01/17 02:05:17;;;;;;;3.30;3.00;;;;;;;3.73;92.86;97174.22;5054447;28;20214;-82
2023/01/17 02:07:50;;;;;;;2.87;2.50;;;;;;;3.73;92.29;97170.75;5047517;28;20220;-82
2023/01/17 02:10:16;;;;;;;2.40;2.00;;;;;;;3.72;92.44;97169.91;5053250;28;20206;-82
2023/01/17 02:12:44;;;;;;;2.93;2.63;;;;;;;3.73;92.17;97173.38;5047041;28;20237;-82
2023/01/17 02:15:11;;;;;;;2.37;2.17;;;;;;;3.71;91.70;97178.78;5052203;28;20201;-82
2023/01/17 02:17:51;;;;;;;2.17;1.97;;;;;;;3.72;91.60;97183.06;5051330;28;20230;-82
2023/01/17 02:20:47;;;;;;;2.33;1.90;;;;;;;3.67;92.16;97187.06;5048230;28;20209;-83
2023/01/17 02:24:03;;;;;;;1.97;1.77;;;;;;;3.67;91.82;97187.06;5046829;28;20229;-82
2023/01/17 02:26:55;;;;;;;1.50;1.33;;;;;;;3.67;91.31;97203.69;5048313;28;20792;-83
2023/01/17 02:30:05;;;;;;;1.13;1.07;;;;;;;3.66;91.45;97193.31;5037233;28;20228;-82
2023/01/17 02:32:44;;;;;;;2.90;1.87;;;;;;;3.67;91.72;97208.13;5049202;28;20225;-81
2023/01/17 02:35:19;;;;;;;3.70;2.60;;;;;;;3.61;91.90;97204.25;5045940;28;20209;-83
2023/01/17 02:37:52;;;;;;;3.20;2.50;;;;;;;3.59;91.66;97210.59;5040415;28;20219;-82
2023/01/17 02:40:24;;;;;;;3.40;3.07;;;;;;;3.58;91.87;97215.06;5047242;28;20564;-82
2023/01/17 02:42:56;;;;;;;2.87;2.30;;;;;;;3.59;92.13;97215.88;5041207;28;20238;-82
2023/01/17 02:45:22;;;;;;;3.57;3.07;;;;;;;3.54;91.64;97224.19;5042550;28;20204;-82
2023/01/17 02:47:50;;;;;;;3.97;3.50;;;;;;;3.53;92.12;97237.47;5047304;28;20213;-82
2023/01/17 02:50:20;;;;;;;3.63;3.10;;;;;;;3.54;91.97;97237.34;5046937;28;20838;-82
2023/01/17 02:53:00;;;;;;;3.20;2.90;;;;;;;3.56;92.13;97234.59;5048922;28;20236;-82
2023/01/17 02:55:38;;;;;;;3.47;3.10;;;;;;;3.56;92.56;97238.03;5047404;28;20205;-82
2023/01/17 02:58:19;;;;;;;3.87;2.90;;;;;;;3.59;92.34;97247.44;5049999;28;20202;-82
2023/01/17 03:00:57;;;;;;;6.67;3.67;;;;;;;3.59;92.38;97253.53;5048440;28;20209;-82
2023/01/17 03:03:30;;;;;;;4.60;4.10;;;;;;;3.58;92.68;97261.59;5046887;28;20230;-83
2023/01/17 03:06:02;;;;;;;3.80;3.20;;;;;;;3.58;92.10;97259.78;5045882;28;20197;-82
2023/01/17 03:08:29;;;;;;;2.70;2.30;;;;;;;3.59;92.67;97264.06;5048864;28;20213;-82
2023/01/17 03:10:58;;;;;;;2.83;2.53;;;;;;;3.57;92.55;97262.56;5049721;28;20198;-83
2023/01/17 03:13:25;;;;;;;3.13;2.83;;;;;;;3.57;92.37;97276.53;5049219;28;20287;-82
2023/01/17 03:15:51;;;;;;;2.87;2.50;;;;;;;3.60;92.31;97280.69;5048565;28;20201;-83
2023/01/17 03:18:18;;;;;;;2.90;2.60;;;;;;;3.62;92.55;97274.31;5046319;28;20205;-82
2023/01/17 03:20:46;;;;;;;2.40;1.90;;;;;;;3.61;92.54;97274.44;5043300;28;20217;-83
2023/01/17 03:23:12;;;;;;;4.13;2.60;;;;;;;3.61;92.75;97271.81;5040145;28;20667;-83
2023/01/17 03:25:39;;;;;;;2.00;1.80;;;;;;;3.61;92.51;97280.53;5047982;28;20569;-82
2023/01/17 03:28:05;;;;;;;2.40;2.20;;;;;;;3.65;91.81;97281.09;5041383;28;20210;-82
2023/01/17 03:30:32;;;;;;;3.27;2.40;;;;;;;3.65;91.87;97289.00;5044104;28;20201;-83
2023/01/17 03:32:59;;;;;;;2.37;2.10;;;;;;;3.66;91.90;97291.50;5053100;28;20225;-82
2023/01/17 03:35:27;;;;;;;2.30;2.00;;;;;;;3.67;91.42;97300.22;5046147;28;20209;-82
2023/01/17 03:37:54;;;;;;;1.70;1.60;;;;;;;3.64;91.99;97298.69;5039986;28;20210;-82
2023/01/17 03:40:21;;;;;;;1.70;1.60;;;;;;;3.66;91.99;97301.19;5045470;28;20217;-82
2023/01/17 03:42:47;;;;;;;1.60;1.50;;;;;;;3.68;91.22;97304.53;5047137;28;20233;-83
2023/01/17 03:45:14;;;;;;;2.23;1.70;;;;;;;3.67;91.78;97300.22;5041652;28;20218;-82
2023/01/17 03:47:41;;;;;;;1.70;1.60;;;;;;;3.69;90.91;97306.19;5049622;28;20232;-83
2023/01/17 03:50:09;;;;;;;1.50;1.40;;;;;;;3.68;90.80;97305.38;5052077;28;20224;-83
2023/01/17 03:52:35;;;;;;;2.23;1.70;;;;;;;3.68;90.83;97318.53;5039182;28;20230;-82
2023/01/17 03:55:03;;;;;;;2.30;2.10;;;;;;;3.71;90.55;97326.16;5051019;28;20212;-82
2023/01/17 03:57:30;;;;;;;1.77;1.67;;;;;;;3.74;90.71;97320.63;5049809;28;20661;-82
2023/01/17 03:59:56;;;;;;;1.57;1.47;;;;;;;3.73;90.99;97328.66;5051964;28;20202;-82
2023/01/17 04:02:23;;;;;;;2.07;1.97;;;;;;;3.73;91.12;97334.75;5049972;28;20236;-82
2023/01/17 04:04:50;;;;;;;2.00;1.90;;;;;;;3.72;91.15;97334.88;5049322;28;20198;-82
2023/01/17 04:07:16;;;;;;;1.80;1.70;;;;;;;3.74;90.63;97327.69;5050959;28;20400;-82
2023/01/17 04:09:43;;;;;;;2.87;2.20;;;;;;;3.74;91.21;97336.41;5058959;28;20686;-81
2023/01/17 04:12:11;;;;;;;2.40;2.20;;;;;;;3.75;90.74;97343.34;5050826;28;20627;-81
2023/01/17 04:14:37;;;;;;;3.20;2.90;;;;;;;3.75;91.14;97343.34;5049629;28;20411;-82
2023/01/17 04:17:04;;;;;;;2.80;2.60;;;;;;;3.74;91.62;97336.41;5051186;28;20232;-82
2023/01/17 04:19:33;;;;;;;3.30;3.10;;;;;;;3.74;91.84;97344.31;5051856;28;20220;-81
2023/01/17 04:21:59;;;;;;;4.60;3.80;;;;;;;3.74;91.90;97346.94;5048120;28;20598;-81
2023/01/17 04:24:26;;;;;;;3.27;2.97;;;;;;;3.73;92.39;97361.06;5053878;28;20879;-81
2023/01/17 04:26:52;;;;;;;3.43;2.80;;;;;;;3.71;91.51;97349.00;5043871;28;21939;-82
2023/01/17 04:29:20;;;;;;;4.17;3.73;;;;;;;3.68;91.63;97347.47;5046750;28;20796;-81
2023/01/17 04:31:47;;;;;;;3.33;3.03;;;;;;;3.67;92.05;97350.22;5043960;28;20198;-82
2023/01/17 04:34:14;;;;;;;3.30;3.00;;;;;;;3.67;92.09;97366.03;5045862;28;20210;-82
2023/01/17 04:36:40;;;;;;;2.60;2.40;;;;;;;3.66;92.45;97367.81;5051967;28;20696;-81
2023/01/17 04:39:07;;;;;;;3.03;2.50;;;;;;;3.66;92.26;97373.09;5042974;28;20805;-82
2023/01/17 04:41:33;;;;;;;3.20;2.90;;;;;;;3.67;92.25;97373.91;5050407;28;20711;-82
2023/01/17 04:44:00;;;;;;;2.40;2.10;;;;;;;3.66;91.86;97374.88;5048742;28;20659;-81
2023/01/17 04:46:28;;;;;;;2.10;1.90;;;;;;;3.64;91.98;97376.81;5051949;28;20205;-82
2023/01/17 04:48:55;;;;;;;2.20;2.00;;;;;;;3.60;91.96;97383.28;5053785;28;20209;-83
2023/01/17 04:51:21;;;;;;;1.37;1.27;;;;;;;3.59;92.14;97377.19;5053500;28;20210;-83
2023/01/17 04:53:47;;;;;;;1.70;1.60;;;;;;;3.57;91.82;97380.97;5049251;28;20230;-81
2023/01/17 04:56:14;;;;;;;1.50;1.40;;;;;;;3.56;92.26;97379.28;5056841;28;20224;-81
2023/01/17 04:58:40;;;;;;;1.70;1.20;;;;;;;3.51;91.81;97376.22;5051314;28;20228;-82
2023/01/17 05:01:08;;;;;;;1.80;1.27;;;;;;;3.49;92.08;97379.81;5055628;28;20622;-81
2023/01/17 05:03:36;;;;;;;0.67;0.67;;;;;;;3.53;92.10;97383.03;5055326;28;20736;-81
2023/01/17 05:06:03;;;;;;;0.80;0.70;;;;;;;3.54;91.48;97383.84;5047073;28;20229;-82
2023/01/17 05:08:29;;;;;;;0.60;0.60;;;;;;;3.54;91.22;97402.28;5043559;28;20217;-81
2023/01/17 05:10:56;;;;;;;0.90;0.90;;;;;;;3.46;91.72;97384.50;5055477;28;20197;-82
2023/01/17 05:13:22;;;;;;;0.70;0.70;;;;;;;3.45;91.24;97398.63;5046731;28;20226;-81
2023/01/17 05:15:49;;;;;;;0.80;0.70;;;;;;;3.44;91.71;97405.69;5049171;28;20206;-81
2023/01/17 05:18:17;;;;;;;0.60;0.60;;;;;;;3.47;91.59;97409.84;5047255;28;20208;-82
2023/01/17 05:20:45;;;;;;;0.60;0.60;;;;;;;3.47;91.56;97425.63;5045481;28;20233;-81
2023/01/17 05:23:12;;;;;;;1.47;1.13;;;;;;;3.45;91.17;97433.66;5045684;28;20293;-81
2023/01/17 05:25:43;;;;;;;2.80;1.27;;;;;;;3.44;91.84;97442.50;5055488;28;20626;-82
2023/01/17 05:28:10;;;;;;;2.30;1.10;;;;;;;3.44;91.51;97446.94;5055195;28;20241;-81
2023/01/17 05:30:38;;;;;;;1.10;1.00;;;;;;;3.41;91.69;97469.06;5056369;28;20201;-82
2023/01/17 05:33:04;;;;;;;1.60;1.00;;;;;;;3.42;92.53;97483.06;5044771;28;20229;-81
2023/01/17 05:35:32;;;;;;;2.30;1.00;;;;;;;3.42;92.44;97486.53;5045551;28;20209;-81
2023/01/17 05:38:00;;;;;;;1.00;1.00;;;;;;;3.38;92.48;97489.56;5051756;28;21696;-83
2023/01/17 05:40:28;;;;;;;1.17;0.90;;;;;;;3.33;92.92;97486.47;5052619;28;20210;-82
2023/01/17 05:42:56;;;;;;;1.20;0.73;;;;;;;3.31;92.68;97506.81;5051515;28;20309;-82
2023/01/17 05:45:27;;;;;;;0.70;0.70;;;;;;;3.27;92.65;97508.84;5047387;28;20210;-83
2023/01/17 05:47:55;;;;;;;0.50;0.50;;;;;;;3.24;92.87;97522.25;5051859;28;20910;-83
2023/01/17 05:50:23;;;;;;;0.50;0.50;;;;;;;3.20;93.88;97523.50;5052263;28;20205;-83
2023/01/17 05:52:52;;;;;;;0.30;0.30;;;;;;;3.18;93.83;97527.22;5053145;28;20221;-82
2023/01/17 05:55:20;;;;;;;0.20;0.20;;;;;;;3.10;93.87;97536.56;5048132;28;20209;-81
2023/01/17 05:57:47;;;;;;;0.10;0.10;;;;;;;3.05;93.12;97530.00;5049874;28;20201;-81
2023/01/17 06:00:15;;;;;;;0.10;0.10;;;;;;;3.00;93.65;97543.53;5043697;28;20662;-82
2023/01/17 06:02:42;;;;;;;0.20;0.20;;;;;;;2.96;93.67;97546.53;5050709;28;20233;-82
2023/01/17 06:05:09;;;;;;;0.20;0.20;;;;;;;2.92;94.15;97553.00;5046466;28;20228;-82
2023/01/17 06:07:35;;;;;;;0.20;0.20;;;;;;;2.87;93.54;97561.25;5049544;28;20217;-81
2023/01/17 06:10:02;;;;;;;0.20;0.20;;;;;;;2.82;94.23;97566.06;5050071;28;20221;-82
2023/01/17 06:12:30;;;;;;;0.10;0.10;;;;;;;2.80;94.09;97565.34;5054453;28;20221;-82
2023/01/17 06:14:56;;;;;;;0.97;0.10;;;;;;;2.78;94.01;97575.16;5052286;28;20213;-82
2023/01/17 06:17:22;;;;;;;0.23;0.23;;;;;;;2.77;94.15;97576.09;5056979;28;20212;-83
2023/01/17 06:19:49;;;;;;;0.20;0.17;;;;;;;2.74;93.50;97589.50;5050931;28;20213;-81
2023/01/17 06:22:15;;;;;;;0.43;0.30;;;;;;;2.72;93.95;97599.28;5050089;28;20233;-82
2023/01/17 06:24:42;;;;;;;0.20;0.20;;;;;;;2.67;93.42;97598.84;5042070;28;20218;-82
2023/01/17 06:27:09;;;;;;;0.47;0.20;;;;;;;2.61;93.50;97607.19;5043475;28;20202;-81
2023/01/17 06:29:37;;;;;;;0.20;0.20;;;;;;;2.57;94.03;97611.03;5048893;28;20202;-81
2023/01/17 06:32:04;;;;;;;0.30;0.30;;;;;;;2.51;94.24;97625.47;5043947;28;20217;-81
2023/01/17 06:34:30;;;;;;;0.20;0.20;;;;;;;2.46;94.15;97630.25;5046872;28;20585;-81
2023/01/17 06:36:57;;;;;;;0.27;0.27;;;;;;;2.43;93.77;97636.59;5047223;28;20202;-81
2023/01/17 06:39:23;;;;;;;0.20;0.20;;;;;;;2.38;94.53;97643.16;5049537;28;20213;-82
2023/01/17 06:41:50;;;;;;;0.40;0.30;;;;;;;2.36;94.51;97647.69;5054426;28;20233;-81
2023/01/17 06:44:16;;;;;;;1.23;0.30;;;;;;;2.33;94.52;97656.63;5049877;28;20210;-81
2023/01/17 06:46:46;;;;;;;1.20;0.40;;;;;;;2.31;93.88;97657.72;5046586;28;20205;-82
2023/01/17 06:49:12;;;;;;;1.70;0.33;;;;;;;2.29;94.42;97670.13;5049575;28;20629;-81
2023/01/17 06:51:39;;;;;;;0.80;0.20;;;;;;;2.28;94.27;97668.47;5043533;28;20213;-81
2023/01/17 06:54:05;;;;;;;0.53;0.27;;;;;;;2.26;94.22;97670.38;5049166;28;20244;-81
2023/01/17 06:56:33;;;;;;;0.57;0.30;;;;;;;2.22;94.62;97675.00;5049585;28;20206;-83
2023/01/17 06:58:59;;;;;;;0.43;0.20;;;;;;;2.19;94.70;97680.50;5048852;28;20202;-82
2023/01/17 07:01:25;;;;;;;0.43;0.30;;;;;;;2.18;94.42;97693.75;5049589;28;20226;-82
2023/01/17 07:03:53;;;;;;;0.23;0.23;;;;;;;2.15;94.54;97694.81;5045171;28;20218;-81
2023/01/17 07:06:22;;;;;;;0.30;0.30;;;;;;;2.13;94.61;97701.97;5046900;28;20212;-81
2023/01/17 07:08:49;;;;;;;0.20;0.20;;;;;;;2.11;95.35;97703.06;5041973;28;20568;-81
2023/01/17 07:11:15;;;;;;;0.63;0.33;;;;;;;2.07;94.58;97708.53;5047268;28;20202;-82
2023/01/17 07:13:42;;;;;;;0.50;0.30;;;;;;;2.04;94.78;97711.38;5052025;28;20244;-81
2023/01/17 07:16:08;;;;;;;0.30;0.30;;;;;;;2.00;95.46;97712.56;5053977;28;20216;-82
2023/01/17 07:18:35;;;;;;;0.70;0.40;;;;;;;1.98;95.68;97711.00;5051241;28;20210;-81
2023/01/17 07:21:03;;;;;;;1.13;0.43;;;;;;;1.93;95.84;97716.63;5043453;28;20209;-81
2023/01/17 07:23:29;;;;;;;0.73;0.67;;;;;;;1.91;95.84;97721.13;5045390;28;20236;-82
2023/01/17 07:25:57;;;;;;;0.53;0.50;;;;;;;1.89;95.49;97730.91;5044745;28;20222;-82
2023/01/17 07:28:24;;;;;;;1.03;0.90;;;;;;;1.86;95.28;97731.13;5041818;28;20221;-82
2023/01/17 07:30:51;;;;;;;1.33;0.70;;;;;;;1.86;95.50;97725.03;5056056;28;20205;-81
2023/01/17 07:33:17;;;;;;;0.80;0.60;;;;;;;1.87;95.54;97729.34;5051818;28;20217;-82
2023/01/17 07:35:45;;;;;;;0.30;0.30;;;;;;;1.85;95.93;97734.69;5052267;28;20205;-82
2023/01/17 07:38:15;;;;;;;0.60;0.47;;;;;;;1.84;96.19;97735.66;5057998;28;20734;-82
2023/01/17 07:40:42;;;;;;;0.50;0.40;;;;;;;1.84;96.12;97740.91;5054502;28;20665;-82
2023/01/17 07:43:12;;;;;;;0.80;0.20;;;;;;;1.84;95.98;97743.53;5052905;28;20236;-82
2023/01/17 07:45:41;;;;;;;0.83;0.50;;;;;;;1.86;96.07;97748.66;5048967;28;20205;-82
2023/01/17 07:48:08;;;;;;;0.77;0.40;;;;;;;1.86;95.80;97736.38;5048095;28;20214;-82
2023/01/17 07:50:35;;;;;;;1.43;0.80;;;;;;;1.85;95.88;97739.13;5052195;28;20314;-81
2023/01/17 07:53:01;;;;;;;0.93;0.70;;;;;;;1.85;96.39;97747.81;5049218;28;20228;-82
2023/01/17 07:55:29;;;;;;;1.23;0.77;;;;;;;1.86;96.52;97757.38;5050034;28;20206;-82
2023/01/17 07:57:56;;;;;;;0.70;0.70;;;;;;;1.86;96.91;97752.13;5048527;28;20212;-82
2023/01/17 08:00:25;;;;;;;2.27;0.90;;;;;;;1.86;96.50;97756.53;5045001;28;20212;-81
2023/01/17 08:02:55;;;;;;;1.43;0.90;;;;;;;1.88;96.11;97762.50;5048683;28;20233;-82
2023/01/17 08:05:22;;;;;;;4.10;1.30;;;;;;;1.88;96.62;97763.34;5045043;28;20202;-82
2023/01/17 08:07:49;;;;;;;1.93;1.10;;;;;;;1.89;96.63;97769.44;5053335;28;20198;-82
2023/01/17 08:10:16;;;;;;;1.93;1.20;;;;;;;1.91;95.94;97783.28;5051610;28;20580;-81
2023/01/17 08:12:45;;;;;;;2.63;1.63;;;;;;;1.88;96.18;97780.88;5055946;28;20216;-82
2023/01/17 08:15:12;;;;;;;2.70;1.40;;;;;;;1.91;96.32;97783.28;5051429;28;20263;-81
2023/01/17 08:17:38;;;;;;;1.67;1.37;;;;;;;1.95;96.05;97787.34;5056111;28;20206;-82
2023/01/17 08:20:05;;;;;;;2.40;1.30;;;;;;;1.95;96.18;97793.44;5050874;28;20216;-81
2023/01/17 08:22:32;;;;;;;1.67;1.00;;;;;;;1.99;95.65;97787.00;5054482;28;20306;-82
2023/01/17 08:24:58;;;;;;;2.23;1.23;;;;;;;1.99;95.34;97794.03;5050071;28;20249;-82
2023/01/17 08:27:25;;;;;;;2.87;1.40;;;;;;;2.00;95.40;97796.53;5048797;28;20205;-82
2023/01/17 08:29:53;;;;;;;3.03;1.40;;;;;;;2.00;95.41;97801.78;5052491;28;20570;-83
2023/01/17 08:32:21;;;;;;;2.50;1.50;;;;;;;2.01;95.39;97808.72;5043342;28;20225;-83
2023/01/17 08:34:47;;;;;;;2.40;1.00;;;;;;;2.06;95.01;97798.72;5046605;28;20221;-83
2023/01/17 08:37:14;;;;;;;4.07;1.87;;;;;;;2.05;94.66;97810.19;5048459;28;20585;-82
2023/01/17 08:39:40;;;;;;;2.67;1.27;;;;;;;2.07;94.02;97796.94;5063811;28;20201;-82
2023/01/17 08:42:07;;;;;;;1.90;1.23;;;;;;;2.12;94.34;97807.09;5052659;28;20322;-83
2023/01/17 08:44:33;;;;;;;3.10;1.17;;;;;;;2.13;94.26;97801.75;5047138;28;20217;-82
2023/01/17 08:47:01;;;;;;;2.63;0.80;;;;;;;2.15;93.37;97820.00;5053692;28;20732;-81
2023/01/17 08:49:28;;;;;;;1.47;1.17;;;;;;;2.17;93.10;97810.22;5047896;28;20210;-82
2023/01/17 08:51:54;;;;;;;2.80;1.23;;;;;;;2.17;93.09;97816.28;5065505;28;20676;-82
2023/01/17 08:54:21;;;;;;;4.20;0.90;;;;;;;2.19;92.44;97838.03;5043003;28;20587;-82
2023/01/17 08:56:48;;;;;;;3.77;1.00;;;;;;;2.21;92.50;97837.91;5041647;28;20205;-82
2023/01/17 08:59:15;;;;;;;1.63;0.90;;;;;;;2.24;92.38;97840.31;5053102;28;20206;-82
2023/01/17 09:01:44;;;;;;;3.70;1.00;;;;;;;2.26;91.61;97838.41;5049102;28;20240;-82
2023/01/17 09:04:13;;;;;;;3.20;1.20;;;;;;;2.27;91.63;97840.09;5048813;28;20807;-82
2023/01/17 09:06:41;;;;;;;5.40;1.43;;;;;;;2.31;91.68;97839.75;5052818;28;20217;-82
2023/01/17 09:09:09;;;;;;;2.83;1.50;;;;;;;2.33;90.81;97850.16;5049951;28;20211;-83
2023/01/17 09:11:37;;;;;;;2.13;1.40;;;;;;;2.35;90.55;97853.47;5042312;28;20210;-83
2023/01/17 09:14:04;;;;;;;4.57;1.90;;;;;;;2.38;90.54;97848.00;5050197;28;20230;-84
2023/01/17 09:16:31;;;;;;;3.27;1.43;;;;;;;2.41;90.53;97850.41;5053760;28;20202;-83
2023/01/17 09:18:58;;;;;;;1.33;0.97;;;;;;;2.45;90.38;97849.22;5053832;28;20681;-83
2023/01/17 09:21:26;;;;;;;6.07;1.60;;;;;;;2.49;89.49;97848.06;5054177;28;20269;-83
2023/01/17 09:23:54;;;;;;;4.97;1.43;;;;;;;2.52;89.38;97850.44;5052021;28;20229;-83
2023/01/17 09:26:23;;;;;;;1.87;1.07;;;;;;;2.58;89.30;97859.66;5050633;28;20224;-83
2023/01/17 09:28:50;;;;;;;3.40;1.20;;;;;;;2.63;88.75;97862.78;5050582;28;20213;-83
2023/01/17 09:31:19;;;;;;;4.50;1.40;;;;;;;2.65;88.11;97859.09;5047877;28;20685;-83
2023/01/17 09:33:45;;;;;;;3.00;1.20;;;;;;;2.68;88.10;97864.13;5045900;28;20248;-84
2023/01/17 09:36:12;;;;;;;3.30;1.17;;;;;;;2.72;87.64;97864.69;5051279;28;20209;-84
2023/01/17 09:38:40;;;;;;;3.87;1.40;;;;;;;2.76;86.85;97863.50;5050198;28;20194;-83
2023/01/17 09:41:22;;;;;;;2.13;1.00;;;;;;;2.81;86.83;97863.16;5046066;28;20206;-83
2023/01/17 09:43:53;;;;;;;2.13;1.33;;;;;;;2.85;86.75;97864.63;5047184;28;20239;-84
2023/01/17 09:46:23;;;;;;;4.13;1.63;;;;;;;2.86;86.04;97871.56;5053480;28;20204;-83
2023/01/17 09:48:57;;;;;;;4.10;1.70;;;;;;;2.87;86.37;97881.91;5046473;28;20224;-83
2023/01/17 09:51:24;;;;;;;2.07;1.43;;;;;;;2.91;85.58;97878.13;5049815;28;20241;-83
2023/01/17 09:53:53;;;;;;;2.80;1.50;;;;;;;2.92;85.16;97886.84;5054328;28;20244;-83
2023/01/17 09:56:26;;;;;;;2.97;1.63;;;;;;;2.92;85.22;97887.69;5054798;28;20213;-83
2023/01/17 09:59:15;;;;;;;3.17;1.40;;;;;;;2.94;84.47;97888.41;5056344;28;20284;-83
2023/01/17 10:01:47;;;;;;;3.63;1.30;;;;;;;2.94;84.25;97893.66;5048114;28;20213;-83
2023/01/17 10:04:30;;;;;;;2.97;1.47;;;;;;;2.95;84.05;97905.00;5046029;28;20198;-83
2023/01/17 10:07:11;;;;;;;2.20;1.53;;;;;;;2.95;83.22;97918.16;5048221;28;20574;-84
2023/01/17 10:09:53;;;;;;;2.23;1.03;;;;;;;2.95;83.11;97920.78;5041886;28;20207;-83
2023/01/17 10:12:29;;;;;;;2.20;1.20;;;;;;;3.00;83.49;97918.66;5048215;28;20607;-83
2023/01/17 10:15:05;;;;;;;2.90;1.13;;;;;;;3.00;82.54;97923.91;5046286;28;20200;-83
2023/01/17 10:17:43;;;;;;;1.60;1.23;;;;;;;2.98;82.74;97916.13;5048985;28;20209;-84
2023/01/17 10:20:32;;;;;;;1.63;1.10;;;;;;;3.01;82.53;97915.06;5050245;28;20201;-84
2023/01/17 10:23:24;;;;;;;1.77;1.50;;;;;;;3.02;81.79;97919.38;5047586;28;20228;-84
2023/01/17 10:25:54;;;;;;;2.43;1.37;;;;;;;3.04;81.92;97922.72;5043505;28;20741;-84
2023/01/17 10:28:25;;;;;;;2.77;1.57;;;;;;;3.03;81.54;97921.06;5047882;28;20965;-83
2023/01/17 10:30:57;;;;;;;4.80;1.30;;;;;;;3.03;81.19;97931.56;5050726;28;20224;-84
2023/01/17 10:33:28;;;;;;;1.93;1.57;;;;;;;3.05;81.38;97922.59;5051560;28;20214;-84
2023/01/17 10:35:57;;;;;;;3.23;1.50;;;;;;;3.09;81.50;97934.56;5049675;28;20209;-84
2023/01/17 10:38:29;;;;;;;4.17;1.27;;;;;;;3.13;81.08;97924.66;5052494;28;20225;-84
2023/01/17 10:41:02;;;;;;;2.80;1.60;;;;;;;3.12;80.71;97934.31;5054237;28;20206;-84
2023/01/17 10:43:38;;;;;;;4.83;1.50;;;;;;;3.14;80.08;97919.28;5050112;28;20619;-83
2023/01/17 10:46:05;;;;;;;3.07;1.67;;;;;;;3.19;80.36;97926.81;5058911;28;20215;-83
2023/01/17 10:48:39;;;;;;;3.10;1.10;;;;;;;3.20;79.83;97923.22;5048628;28;20204;-83
2023/01/17 10:51:21;;;;;;;3.33;1.33;;;;;;;3.23;79.62;97925.59;5052084;28;20205;-83
2023/01/17 10:54:02;;;;;;;3.47;1.70;;;;;;;3.25;79.70;97923.69;5058434;28;20279;-82
2023/01/17 10:56:31;;;;;;;3.53;1.67;;;;;;;3.28;79.87;97927.88;5043434;28;20209;-83
2023/01/17 10:59:14;;;;;;;2.20;1.40;;;;;;;3.28;78.91;97926.09;5038812;28;20240;-80
2023/01/17 11:01:40;;;;;;;5.90;1.83;;;;;;;3.25;78.72;97921.06;5037963;28;20201;-80
2023/01/17 11:04:18;;;;;;;4.03;1.30;;;;;;;3.27;78.48;97921.78;5046846;28;20587;-81
2023/01/17 11:06:46;;;;;;;3.13;1.37;;;;;;;3.28;78.14;97925.25;5044146;28;20216;-79
2023/01/17 11:09:12;;;;;;;3.50;1.60;;;;;;;3.28;78.24;97915.56;5040827;28;20267;-80
2023/01/17 11:11:47;;;;;;;3.10;1.33;;;;;;;3.30;78.54;97932.06;5041578;28;20213;-81
2023/01/17 11:14:19;;;;;;;3.63;1.50;;;;;;;3.29;78.19;97924.31;5042646;28;20198;-80
2023/01/17 11:16:58;;;;;;;2.43;1.47;;;;;;;3.25;78.25;97921.06;5047751;28;20201;-79
2023/01/17 11:19:29;;;;;;;3.67;1.40;;;;;;;3.25;78.11;97923.69;5043934;28;20205;-81
2023/01/17 11:22:00;;;;;;;1.80;1.40;;;;;;;3.27;77.49;97916.53;5043902;28;20193;-80
2023/01/17 11:24:33;;;;;;;2.60;1.20;;;;;;;3.27;77.32;97927.03;5044254;28;20248;-80
2023/01/17 11:27:02;;;;;;;4.77;1.80;;;;;;;3.30;77.41;97925.97;5046174;28;20197;-81
2023/01/17 11:29:35;;;;;;;3.60;1.40;;;;;;;3.28;77.02;97923.47;5042800;28;20208;-81
2023/01/17 11:32:30;;;;;;;3.53;1.40;;;;;;;3.28;77.08;97933.16;5042327;28;20210;-80
2023/01/17 11:35:17;;;;;;;3.87;1.50;;;;;;;3.25;77.19;97928.13;5041673;28;20209;-80
2023/01/17 11:37:49;;;;;;;2.97;1.20;;;;;;;3.28;76.63;97936.63;5041126;28;20293;-80
2023/01/17 11:40:23;;;;;;;5.33;1.43;;;;;;;3.26;76.74;97935.06;5043832;28;20650;-81
2023/01/17 11:43:00;;;;;;;4.97;1.57;;;;;;;3.25;76.35;97928.94;5046146;28;20224;-80
2023/01/17 11:45:28;;;;;;;4.30;1.23;;;;;;;3.26;75.85;97932.44;5044141;28;20602;-82
2023/01/17 11:48:15;;;;;;;4.60;1.50;;;;;;;3.28;75.84;97931.34;5046734;28;20205;-81
2023/01/17 11:50:46;;;;;;;3.07;1.20;;;;;;;3.29;75.36;97932.19;5044026;28;20213;-80
2023/01/17 11:53:24;;;;;;;2.93;1.20;;;;;;;3.31;75.85;97935.53;5041902;28;20295;-82
2023/01/17 11:55:55;;;;;;;3.27;1.50;;;;;;;3.33;75.38;97938.91;5045323;28;20206;-80
2023/01/17 11:58:24;;;;;;;6.47;1.37;;;;;;;3.35;75.92;97945.72;5039830;28;20209;-80
2023/01/17 12:00:59;;;;;;;2.47;1.37;;;;;;;3.33;75.36;97938.91;5044001;28;20389;-80
2023/01/17 12:03:41;;;;;;;2.03;1.17;;;;;;;3.30;75.06;97939.97;5045455;28;20689;-80
2023/01/17 12:06:13;;;;;;;4.47;1.33;;;;;;;3.32;74.35;97940.69;5044261;28;20205;-81
2023/01/17 12:08:54;;;;;;;2.23;1.43;;;;;;;3.33;74.57;97941.53;5040653;28;20213;-80
2023/01/17 12:11:28;;;;;;;2.73;1.03;;;;;;;3.31;74.54;97936.38;5039866;28;20206;-80
2023/01/17 12:14:03;;;;;;;3.00;1.30;;;;;;;3.27;74.60;97932.31;5047033;28;20311;-80
2023/01/17 12:16:47;;;;;;;4.70;1.37;;;;;;;3.28;74.75;97941.88;5044623;28;20283;-81
2023/01/17 12:19:31;;;;;;;5.20;1.40;;;;;;;3.28;74.28;97938.41;5048296;28;20218;-80
2023/01/17 12:22:12;;;;;;;3.90;1.73;;;;;;;3.30;74.27;97939.97;5040883;28;20297;-79
2023/01/17 12:25:02;;;;;;;7.13;1.80;;;;;;;3.25;73.45;97934.22;5038404;28;20237;-80
2023/01/17 12:27:37;;;;;;;3.60;2.20;;;;;;;3.24;73.65;97931.69;5041616;28;20202;-80
2023/01/17 12:30:23;;;;;;;1.90;1.37;;;;;;;3.25;73.61;97936.00;5037599;28;20588;-81
2023/01/17 12:33:00;;;;;;;3.63;1.40;;;;;;;3.24;73.46;97929.91;5048569;28;20701;-82
2023/01/17 12:35:31;;;;;;;4.00;1.37;;;;;;;3.26;73.60;97929.78;5040267;28;20228;-81
2023/01/17 12:38:05;;;;;;;3.73;1.20;;;;;;;3.28;73.55;97933.97;5055147;28;20692;-81
2023/01/17 12:40:36;;;;;;;2.17;1.20;;;;;;;3.32;73.23;97932.81;5055888;28;20197;-81
2023/01/17 12:43:07;;;;;;;3.43;1.93;;;;;;;3.31;72.68;97941.66;5058758;28;20240;-81
2023/01/17 12:45:41;;;;;;;2.40;1.70;;;;;;;3.30;72.76;97945.22;5054429;28;20202;-81
2023/01/17 12:48:11;;;;;;;6.40;1.70;;;;;;;3.30;72.88;97947.88;5054056;28;20236;-80
2023/01/17 12:50:43;;;;;;;3.37;1.50;;;;;;;3.32;72.58;97956.47;5052046;28;20198;-81
2023/01/17 12:53:19;;;;;;;4.60;1.90;;;;;;;3.36;73.12;97957.09;5050952;28;20253;-80
2023/01/17 12:55:52;;;;;;;3.53;1.30;;;;;;;3.35;72.26;97958.88;5052556;28;20212;-80
2023/01/17 12:58:21;;;;;;;4.40;1.97;;;;;;;3.35;72.70;97961.50;5051320;28;20201;-80
2023/01/17 13:00:59;;;;;;;6.50;1.80;;;;;;;3.39;72.89;97962.13;5054666;28;20209;-80
2023/01/17 13:03:35;;;;;;;3.07;1.70;;;;;;;3.41;72.08;97968.91;5049062;28;20221;-80
2023/01/17 13:06:03;;;;;;;4.63;2.30;;;;;;;3.40;72.48;97967.22;5050648;28;20201;-81
2023/01/17 13:08:37;;;;;;;8.60;5.07;;;;;;;3.39;72.54;97972.63;5042074;28;20205;-81
2023/01/17 13:11:08;;;;;;;7.83;5.93;;;;;;;3.40;72.04;97972.50;5043285;28;20279;-81
2023/01/17 13:13:35;;;;;;;4.23;2.83;;;;;;;3.39;71.76;97970.84;5040950;28;20229;-81